sensor_id;sensor_type;location;lat;lon;timestamp;P1;durP1;ratioP1;P2;durP2;ratioP2
1759;SDS011;877;46.266;20.062;2023-12-07T00:02:22;58.38;;;24.45;;
1759;SDS011;877;46.266;20.062;2023-12-07T00:04:48;68.20;;;28.92;;
1759;SDS011;877;46.266;20.062;2023-12-07T00:07:14;63.95;;;26.70;;
1759;SDS011;877;46.266;20.062;2023-12-07T00:09:41;62.15;;;25.30;;
1759;SDS011;877;46.266;20.062;2023-12-07T00:12:08;54.53;;;24.55;;
1759;SDS011;877;46.266;20.062;2023-12-07T00:14:34;58.28;;;26.85;;
1759;SDS011;877;46.266;20.062;2023-12-07T00:17:00;75.95;;;28.15;;
1759;SDS011;877;46.266;20.062;2023-12-07T00:19:27;78.65;;;29.00;;
1759;SDS011;877;46.266;20.062;2023-12-07T00:21:53;62.30;;;24.20;;
1759;SDS011;877;46.266;20.062;2023-12-07T00:24:19;59.03;;;25.48;;
1759;SDS011;877;46.266;20.062;2023-12-07T00:26:45;59.17;;;25.33;;
1759;SDS011;877;46.266;20.062;2023-12-07T00:29:11;60.60;;;24.10;;
1759;SDS011;877;46.266;20.062;2023-12-07T00:31:37;71.55;;;27.55;;
1759;SDS011;877;46.266;20.062;2023-12-07T00:34:04;66.10;;;25.27;;
1759;SDS011;877;46.266;20.062;2023-12-07T00:36:31;64.78;;;25.00;;
1759;SDS011;877;46.266;20.062;2023-12-07T00:38:58;56.97;;;25.25;;
1759;SDS011;877;46.266;20.062;2023-12-07T00:41:24;59.33;;;25.90;;
1759;SDS011;877;46.266;20.062;2023-12-07T00:43:50;58.80;;;24.42;;
1759;SDS011;877;46.266;20.062;2023-12-07T00:46:17;59.47;;;22.92;;
1759;SDS011;877;46.266;20.062;2023-12-07T00:48:44;60.55;;;23.88;;
1759;SDS011;877;46.266;20.062;2023-12-07T00:51:10;57.53;;;24.25;;
1759;SDS011;877;46.266;20.062;2023-12-07T00:53:36;68.90;;;24.25;;
1759;SDS011;877;46.266;20.062;2023-12-07T00:56:03;50.65;;;20.92;;
1759;SDS011;877;46.266;20.062;2023-12-07T00:58:29;52.28;;;23.50;;
1759;SDS011;877;46.266;20.062;2023-12-07T01:00:56;50.72;;;23.35;;
1759;SDS011;877;46.266;20.062;2023-12-07T01:03:22;54.15;;;25.25;;
1759;SDS011;877;46.266;20.062;2023-12-07T01:05:48;56.50;;;23.85;;
1759;SDS011;877;46.266;20.062;2023-12-07T01:08:14;53.40;;;23.77;;
1759;SDS011;877;46.266;20.062;2023-12-07T01:10:41;57.80;;;27.17;;
1759;SDS011;877;46.266;20.062;2023-12-07T01:13:07;61.95;;;25.90;;
1759;SDS011;877;46.266;20.062;2023-12-07T01:15:33;52.63;;;23.50;;
1759;SDS011;877;46.266;20.062;2023-12-07T01:18:00;54.83;;;25.08;;
1759;SDS011;877;46.266;20.062;2023-12-07T01:20:26;51.15;;;23.10;;
1759;SDS011;877;46.266;20.062;2023-12-07T01:22:53;58.17;;;24.48;;
1759;SDS011;877;46.266;20.062;2023-12-07T01:25:19;55.60;;;24.23;;
1759;SDS011;877;46.266;20.062;2023-12-07T01:27:47;53.70;;;23.00;;
1759;SDS011;877;46.266;20.062;2023-12-07T01:30:14;43.08;;;21.85;;
1759;SDS011;877;46.266;20.062;2023-12-07T01:32:40;50.30;;;22.80;;
1759;SDS011;877;46.266;20.062;2023-12-07T01:35:06;43.42;;;21.33;;
1759;SDS011;877;46.266;20.062;2023-12-07T01:37:33;49.40;;;22.20;;
1759;SDS011;877;46.266;20.062;2023-12-07T01:39:59;43.17;;;22.35;;
1759;SDS011;877;46.266;20.062;2023-12-07T01:42:25;37.42;;;19.48;;
1759;SDS011;877;46.266;20.062;2023-12-07T01:44:51;40.17;;;21.73;;
1759;SDS011;877;46.266;20.062;2023-12-07T01:47:17;35.20;;;20.00;;
1759;SDS011;877;46.266;20.062;2023-12-07T01:49:44;40.60;;;21.33;;
1759;SDS011;877;46.266;20.062;2023-12-07T01:52:10;41.97;;;22.23;;
1759;SDS011;877;46.266;20.062;2023-12-07T01:54:37;41.60;;;21.25;;
1759;SDS011;877;46.266;20.062;2023-12-07T01:57:03;45.30;;;22.92;;
1759;SDS011;877;46.266;20.062;2023-12-07T01:59:30;34.40;;;18.80;;
1759;SDS011;877;46.266;20.062;2023-12-07T02:01:56;43.88;;;21.65;;
1759;SDS011;877;46.266;20.062;2023-12-07T02:04:22;44.22;;;21.48;;
1759;SDS011;877;46.266;20.062;2023-12-07T02:06:49;41.13;;;22.00;;
1759;SDS011;877;46.266;20.062;2023-12-07T02:09:15;38.85;;;19.58;;
1759;SDS011;877;46.266;20.062;2023-12-07T02:11:42;45.40;;;21.90;;
1759;SDS011;877;46.266;20.062;2023-12-07T02:14:08;36.05;;;19.98;;
1759;SDS011;877;46.266;20.062;2023-12-07T02:16:37;36.55;;;19.17;;
1759;SDS011;877;46.266;20.062;2023-12-07T02:21:47;37.20;;;21.20;;
1759;SDS011;877;46.266;20.062;2023-12-07T02:24:20;48.35;;;23.30;;
1759;SDS011;877;46.266;20.062;2023-12-07T02:26:47;39.85;;;20.15;;
1759;SDS011;877;46.266;20.062;2023-12-07T02:29:13;38.05;;;20.20;;
1759;SDS011;877;46.266;20.062;2023-12-07T02:31:39;38.60;;;21.85;;
1759;SDS011;877;46.266;20.062;2023-12-07T02:34:06;41.33;;;21.65;;
1759;SDS011;877;46.266;20.062;2023-12-07T02:36:33;43.28;;;21.55;;
1759;SDS011;877;46.266;20.062;2023-12-07T02:39:01;40.70;;;21.83;;
1759;SDS011;877;46.266;20.062;2023-12-07T02:41:29;41.90;;;20.13;;
1759;SDS011;877;46.266;20.062;2023-12-07T02:43:59;40.25;;;21.00;;
1759;SDS011;877;46.266;20.062;2023-12-07T02:46:26;39.40;;;20.73;;
1759;SDS011;877;46.266;20.062;2023-12-07T02:48:53;43.47;;;22.00;;
1759;SDS011;877;46.266;20.062;2023-12-07T02:51:19;39.72;;;20.90;;
1759;SDS011;877;46.266;20.062;2023-12-07T02:53:46;39.85;;;21.13;;
1759;SDS011;877;46.266;20.062;2023-12-07T02:56:13;42.58;;;22.25;;
1759;SDS011;877;46.266;20.062;2023-12-07T02:58:39;35.75;;;20.83;;
1759;SDS011;877;46.266;20.062;2023-12-07T03:01:05;34.30;;;21.13;;
1759;SDS011;877;46.266;20.062;2023-12-07T03:03:31;37.13;;;20.25;;
1759;SDS011;877;46.266;20.062;2023-12-07T03:06:00;35.08;;;19.40;;
1759;SDS011;877;46.266;20.062;2023-12-07T03:08:26;34.53;;;20.35;;
1759;SDS011;877;46.266;20.062;2023-12-07T03:10:53;40.13;;;20.83;;
1759;SDS011;877;46.266;20.062;2023-12-07T03:13:19;38.28;;;20.70;;
1759;SDS011;877;46.266;20.062;2023-12-07T03:15:45;34.67;;;20.10;;
1759;SDS011;877;46.266;20.062;2023-12-07T03:18:12;35.88;;;22.20;;
1759;SDS011;877;46.266;20.062;2023-12-07T03:20:38;37.85;;;20.73;;
1759;SDS011;877;46.266;20.062;2023-12-07T03:23:04;34.47;;;19.13;;
1759;SDS011;877;46.266;20.062;2023-12-07T03:25:30;34.50;;;20.63;;
1759;SDS011;877;46.266;20.062;2023-12-07T03:27:56;34.65;;;19.17;;
1759;SDS011;877;46.266;20.062;2023-12-07T03:30:24;30.60;;;17.88;;
1759;SDS011;877;46.266;20.062;2023-12-07T03:32:51;30.52;;;17.85;;
1759;SDS011;877;46.266;20.062;2023-12-07T03:35:17;35.47;;;20.15;;
1759;SDS011;877;46.266;20.062;2023-12-07T03:37:43;31.67;;;19.25;;
1759;SDS011;877;46.266;20.062;2023-12-07T03:40:11;34.92;;;19.55;;
1759;SDS011;877;46.266;20.062;2023-12-07T03:42:38;34.80;;;19.85;;
1759;SDS011;877;46.266;20.062;2023-12-07T03:45:04;34.78;;;19.17;;
1759;SDS011;877;46.266;20.062;2023-12-07T03:47:30;27.27;;;17.85;;
1759;SDS011;877;46.266;20.062;2023-12-07T03:49:57;40.00;;;20.23;;
1759;SDS011;877;46.266;20.062;2023-12-07T03:52:23;32.95;;;18.23;;
1759;SDS011;877;46.266;20.062;2023-12-07T03:54:49;31.83;;;17.10;;
1759;SDS011;877;46.266;20.062;2023-12-07T03:57:16;32.03;;;17.67;;
1759;SDS011;877;46.266;20.062;2023-12-07T03:59:42;31.20;;;17.73;;
1759;SDS011;877;46.266;20.062;2023-12-07T04:02:08;29.58;;;18.65;;
1759;SDS011;877;46.266;20.062;2023-12-07T04:04:35;29.73;;;16.95;;
1759;SDS011;877;46.266;20.062;2023-12-07T04:07:01;30.17;;;19.02;;
1759;SDS011;877;46.266;20.062;2023-12-07T04:09:27;32.90;;;20.20;;
1759;SDS011;877;46.266;20.062;2023-12-07T04:11:53;31.98;;;19.15;;
1759;SDS011;877;46.266;20.062;2023-12-07T04:14:20;25.70;;;16.23;;
1759;SDS011;877;46.266;20.062;2023-12-07T04:16:46;25.60;;;16.13;;
1759;SDS011;877;46.266;20.062;2023-12-07T04:19:12;25.85;;;15.45;;
1759;SDS011;877;46.266;20.062;2023-12-07T04:21:38;29.45;;;18.92;;
1759;SDS011;877;46.266;20.062;2023-12-07T04:24:06;24.05;;;16.20;;
1759;SDS011;877;46.266;20.062;2023-12-07T04:26:32;23.67;;;14.45;;
1759;SDS011;877;46.266;20.062;2023-12-07T04:29:00;24.00;;;15.93;;
1759;SDS011;877;46.266;20.062;2023-12-07T04:31:26;27.60;;;15.18;;
1759;SDS011;877;46.266;20.062;2023-12-07T04:33:52;29.17;;;16.27;;
1759;SDS011;877;46.266;20.062;2023-12-07T04:36:18;20.40;;;13.88;;
1759;SDS011;877;46.266;20.062;2023-12-07T04:38:45;20.65;;;13.85;;
1759;SDS011;877;46.266;20.062;2023-12-07T04:41:11;24.60;;;15.45;;
1759;SDS011;877;46.266;20.062;2023-12-07T04:43:37;25.90;;;17.42;;
1759;SDS011;877;46.266;20.062;2023-12-07T04:46:03;23.23;;;14.35;;
1759;SDS011;877;46.266;20.062;2023-12-07T04:48:30;20.42;;;13.18;;
1759;SDS011;877;46.266;20.062;2023-12-07T04:50:56;18.60;;;13.18;;
1759;SDS011;877;46.266;20.062;2023-12-07T04:53:22;20.30;;;12.38;;
1759;SDS011;877;46.266;20.062;2023-12-07T04:55:49;21.08;;;13.55;;
1759;SDS011;877;46.266;20.062;2023-12-07T04:58:15;26.52;;;14.57;;
1759;SDS011;877;46.266;20.062;2023-12-07T05:00:42;25.10;;;14.40;;
1759;SDS011;877;46.266;20.062;2023-12-07T05:03:08;26.98;;;15.30;;
1759;SDS011;877;46.266;20.062;2023-12-07T05:05:34;26.20;;;14.20;;
1759;SDS011;877;46.266;20.062;2023-12-07T05:08:01;23.10;;;15.43;;
1759;SDS011;877;46.266;20.062;2023-12-07T05:10:27;22.15;;;12.70;;
1759;SDS011;877;46.266;20.062;2023-12-07T05:12:53;23.75;;;16.08;;
1759;SDS011;877;46.266;20.062;2023-12-07T05:15:22;25.88;;;14.55;;
1759;SDS011;877;46.266;20.062;2023-12-07T05:17:48;27.95;;;16.75;;
1759;SDS011;877;46.266;20.062;2023-12-07T05:20:14;29.55;;;18.42;;
1759;SDS011;877;46.266;20.062;2023-12-07T05:22:41;25.38;;;16.70;;
1759;SDS011;877;46.266;20.062;2023-12-07T05:25:07;27.00;;;14.80;;
1759;SDS011;877;46.266;20.062;2023-12-07T05:27:33;27.17;;;16.13;;
1759;SDS011;877;46.266;20.062;2023-12-07T05:29:59;27.40;;;15.43;;
1759;SDS011;877;46.266;20.062;2023-12-07T05:32:26;27.00;;;16.40;;
1759;SDS011;877;46.266;20.062;2023-12-07T05:34:54;28.05;;;15.00;;
1759;SDS011;877;46.266;20.062;2023-12-07T05:37:20;23.15;;;15.65;;
1759;SDS011;877;46.266;20.062;2023-12-07T05:39:46;33.13;;;18.40;;
1759;SDS011;877;46.266;20.062;2023-12-07T05:42:12;25.65;;;15.55;;
1759;SDS011;877;46.266;20.062;2023-12-07T05:44:38;30.27;;;17.23;;
1759;SDS011;877;46.266;20.062;2023-12-07T05:47:05;26.23;;;16.17;;
1759;SDS011;877;46.266;20.062;2023-12-07T05:49:33;27.55;;;16.58;;
1759;SDS011;877;46.266;20.062;2023-12-07T05:51:59;30.83;;;17.30;;
1759;SDS011;877;46.266;20.062;2023-12-07T05:54:26;32.47;;;16.73;;
1759;SDS011;877;46.266;20.062;2023-12-07T05:56:53;27.85;;;17.45;;
1759;SDS011;877;46.266;20.062;2023-12-07T05:59:19;33.53;;;19.52;;
1759;SDS011;877;46.266;20.062;2023-12-07T06:01:45;30.05;;;16.92;;
1759;SDS011;877;46.266;20.062;2023-12-07T06:04:11;28.33;;;16.60;;
1759;SDS011;877;46.266;20.062;2023-12-07T06:06:38;26.35;;;18.15;;
1759;SDS011;877;46.266;20.062;2023-12-07T06:09:04;27.05;;;17.33;;
1759;SDS011;877;46.266;20.062;2023-12-07T06:11:31;28.05;;;17.30;;
1759;SDS011;877;46.266;20.062;2023-12-07T06:13:57;27.10;;;17.20;;
1759;SDS011;877;46.266;20.062;2023-12-07T06:16:25;26.35;;;17.52;;
1759;SDS011;877;46.266;20.062;2023-12-07T06:18:51;23.25;;;15.57;;
1759;SDS011;877;46.266;20.062;2023-12-07T06:21:17;24.92;;;16.08;;
1759;SDS011;877;46.266;20.062;2023-12-07T06:23:44;22.83;;;15.30;;
1759;SDS011;877;46.266;20.062;2023-12-07T06:26:12;23.55;;;14.50;;
1759;SDS011;877;46.266;20.062;2023-12-07T06:28:38;23.35;;;14.90;;
1759;SDS011;877;46.266;20.062;2023-12-07T06:31:05;22.10;;;14.70;;
1759;SDS011;877;46.266;20.062;2023-12-07T06:33:32;24.92;;;15.27;;
1759;SDS011;877;46.266;20.062;2023-12-07T06:36:00;22.90;;;15.30;;
1759;SDS011;877;46.266;20.062;2023-12-07T06:38:28;26.10;;;17.80;;
1759;SDS011;877;46.266;20.062;2023-12-07T06:40:55;20.55;;;13.32;;
1759;SDS011;877;46.266;20.062;2023-12-07T06:43:21;21.23;;;13.48;;
1759;SDS011;877;46.266;20.062;2023-12-07T06:45:47;25.48;;;14.30;;
1759;SDS011;877;46.266;20.062;2023-12-07T06:48:14;22.77;;;15.32;;
1759;SDS011;877;46.266;20.062;2023-12-07T06:50:40;22.73;;;14.38;;
1759;SDS011;877;46.266;20.062;2023-12-07T06:53:06;23.50;;;16.40;;
1759;SDS011;877;46.266;20.062;2023-12-07T06:55:33;26.20;;;16.35;;
1759;SDS011;877;46.266;20.062;2023-12-07T06:57:59;25.13;;;16.30;;
1759;SDS011;877;46.266;20.062;2023-12-07T07:00:25;25.15;;;17.38;;
1759;SDS011;877;46.266;20.062;2023-12-07T07:02:51;25.15;;;14.90;;
1759;SDS011;877;46.266;20.062;2023-12-07T07:05:17;25.08;;;13.55;;
1759;SDS011;877;46.266;20.062;2023-12-07T07:07:45;29.02;;;16.40;;
1759;SDS011;877;46.266;20.062;2023-12-07T07:10:11;23.27;;;14.75;;
1759;SDS011;877;46.266;20.062;2023-12-07T07:12:37;26.92;;;18.25;;
1759;SDS011;877;46.266;20.062;2023-12-07T07:15:04;25.35;;;16.63;;
1759;SDS011;877;46.266;20.062;2023-12-07T07:17:32;27.63;;;16.55;;
1759;SDS011;877;46.266;20.062;2023-12-07T07:19:58;27.00;;;17.17;;
1759;SDS011;877;46.266;20.062;2023-12-07T07:22:24;24.45;;;15.98;;
1759;SDS011;877;46.266;20.062;2023-12-07T07:24:50;32.38;;;17.88;;
1759;SDS011;877;46.266;20.062;2023-12-07T07:27:17;29.13;;;18.55;;
1759;SDS011;877;46.266;20.062;2023-12-07T07:29:43;27.83;;;18.70;;
1759;SDS011;877;46.266;20.062;2023-12-07T07:32:11;31.17;;;20.48;;
1759;SDS011;877;46.266;20.062;2023-12-07T07:34:37;34.92;;;21.60;;
1759;SDS011;877;46.266;20.062;2023-12-07T07:37:04;40.90;;;23.05;;
1759;SDS011;877;46.266;20.062;2023-12-07T07:39:32;42.20;;;24.92;;
1759;SDS011;877;46.266;20.062;2023-12-07T07:41:58;32.72;;;20.90;;
1759;SDS011;877;46.266;20.062;2023-12-07T07:44:25;44.95;;;23.80;;
1759;SDS011;877;46.266;20.062;2023-12-07T07:46:51;36.25;;;22.80;;
1759;SDS011;877;46.266;20.062;2023-12-07T07:49:17;38.80;;;23.17;;
1759;SDS011;877;46.266;20.062;2023-12-07T07:51:43;37.90;;;24.48;;
1759;SDS011;877;46.266;20.062;2023-12-07T07:54:09;35.47;;;23.15;;
1759;SDS011;877;46.266;20.062;2023-12-07T07:56:36;40.30;;;25.10;;
1759;SDS011;877;46.266;20.062;2023-12-07T07:59:02;36.05;;;22.73;;
1759;SDS011;877;46.266;20.062;2023-12-07T08:01:28;33.50;;;19.92;;
1759;SDS011;877;46.266;20.062;2023-12-07T08:03:54;39.38;;;24.10;;
1759;SDS011;877;46.266;20.062;2023-12-07T08:06:21;37.58;;;23.35;;
1759;SDS011;877;46.266;20.062;2023-12-07T08:08:47;40.60;;;25.23;;
1759;SDS011;877;46.266;20.062;2023-12-07T08:11:14;42.88;;;26.15;;
1759;SDS011;877;46.266;20.062;2023-12-07T08:13:41;45.38;;;28.77;;
1759;SDS011;877;46.266;20.062;2023-12-07T08:16:07;39.17;;;26.67;;
1759;SDS011;877;46.266;20.062;2023-12-07T08:18:36;40.60;;;24.42;;
1759;SDS011;877;46.266;20.062;2023-12-07T08:21:03;37.67;;;25.67;;
1759;SDS011;877;46.266;20.062;2023-12-07T08:23:30;43.03;;;27.65;;
1759;SDS011;877;46.266;20.062;2023-12-07T08:25:56;40.10;;;25.13;;
1759;SDS011;877;46.266;20.062;2023-12-07T08:28:24;37.30;;;23.98;;
1759;SDS011;877;46.266;20.062;2023-12-07T08:30:50;35.10;;;26.27;;
1759;SDS011;877;46.266;20.062;2023-12-07T08:33:17;35.00;;;22.65;;
1759;SDS011;877;46.266;20.062;2023-12-07T08:35:43;35.08;;;22.67;;
1759;SDS011;877;46.266;20.062;2023-12-07T08:38:10;38.65;;;23.95;;
1759;SDS011;877;46.266;20.062;2023-12-07T08:40:37;27.05;;;21.70;;
1759;SDS011;877;46.266;20.062;2023-12-07T08:43:03;30.92;;;21.10;;
1759;SDS011;877;46.266;20.062;2023-12-07T08:45:29;34.47;;;23.63;;
1759;SDS011;877;46.266;20.062;2023-12-07T08:47:58;31.13;;;21.55;;
1759;SDS011;877;46.266;20.062;2023-12-07T08:50:24;26.50;;;19.67;;
1759;SDS011;877;46.266;20.062;2023-12-07T08:52:50;28.73;;;21.50;;
1759;SDS011;877;46.266;20.062;2023-12-07T08:55:16;26.35;;;20.95;;
1759;SDS011;877;46.266;20.062;2023-12-07T08:57:43;27.02;;;22.60;;
1759;SDS011;877;46.266;20.062;2023-12-07T09:00:10;26.75;;;19.77;;
1759;SDS011;877;46.266;20.062;2023-12-07T09:02:38;26.17;;;21.10;;
1759;SDS011;877;46.266;20.062;2023-12-07T09:05:04;22.55;;;17.63;;
1759;SDS011;877;46.266;20.062;2023-12-07T09:07:30;20.67;;;15.98;;
1759;SDS011;877;46.266;20.062;2023-12-07T09:09:56;25.88;;;17.65;;
1759;SDS011;877;46.266;20.062;2023-12-07T09:12:23;22.63;;;16.65;;
1759;SDS011;877;46.266;20.062;2023-12-07T09:14:49;24.85;;;16.98;;
1759;SDS011;877;46.266;20.062;2023-12-07T09:17:15;22.65;;;17.08;;
1759;SDS011;877;46.266;20.062;2023-12-07T09:19:44;20.45;;;17.15;;
1759;SDS011;877;46.266;20.062;2023-12-07T09:22:10;22.63;;;17.10;;
1759;SDS011;877;46.266;20.062;2023-12-07T09:24:39;24.27;;;18.00;;
1759;SDS011;877;46.266;20.062;2023-12-07T09:27:05;22.42;;;16.13;;
1759;SDS011;877;46.266;20.062;2023-12-07T09:29:32;22.02;;;17.65;;
1759;SDS011;877;46.266;20.062;2023-12-07T09:31:58;19.98;;;14.80;;
1759;SDS011;877;46.266;20.062;2023-12-07T09:34:25;21.98;;;16.40;;
1759;SDS011;877;46.266;20.062;2023-12-07T09:37:04;22.40;;;15.73;;
1759;SDS011;877;46.266;20.062;2023-12-07T09:39:31;20.65;;;16.70;;
1759;SDS011;877;46.266;20.062;2023-12-07T09:41:59;22.73;;;17.25;;
1759;SDS011;877;46.266;20.062;2023-12-07T09:44:25;22.55;;;20.02;;
1759;SDS011;877;46.266;20.062;2023-12-07T09:46:52;22.10;;;17.00;;
1759;SDS011;877;46.266;20.062;2023-12-07T09:49:18;23.92;;;17.95;;
1759;SDS011;877;46.266;20.062;2023-12-07T09:51:45;21.75;;;18.05;;
1759;SDS011;877;46.266;20.062;2023-12-07T09:54:12;26.00;;;19.92;;
1759;SDS011;877;46.266;20.062;2023-12-07T09:56:39;28.10;;;21.15;;
1759;SDS011;877;46.266;20.062;2023-12-07T09:59:05;26.13;;;19.90;;
1759;SDS011;877;46.266;20.062;2023-12-07T10:01:33;27.98;;;21.27;;
1759;SDS011;877;46.266;20.062;2023-12-07T10:06:45;25.75;;;18.63;;
1759;SDS011;877;46.266;20.062;2023-12-07T10:09:12;29.08;;;24.42;;
1759;SDS011;877;46.266;20.062;2023-12-07T10:11:39;35.97;;;25.52;;
1759;SDS011;877;46.266;20.062;2023-12-07T10:14:08;39.95;;;29.20;;
1759;SDS011;877;46.266;20.062;2023-12-07T10:16:35;35.35;;;26.48;;
1759;SDS011;877;46.266;20.062;2023-12-07T10:19:14;35.63;;;25.45;;
1759;SDS011;877;46.266;20.062;2023-12-07T10:21:43;37.05;;;27.83;;
1759;SDS011;877;46.266;20.062;2023-12-07T10:24:09;38.63;;;27.55;;
1759;SDS011;877;46.266;20.062;2023-12-07T10:26:37;33.90;;;23.42;;
1759;SDS011;877;46.266;20.062;2023-12-07T10:29:07;35.13;;;25.00;;
1759;SDS011;877;46.266;20.062;2023-12-07T10:31:33;66.70;;;43.03;;
1759;SDS011;877;46.266;20.062;2023-12-07T10:33:59;65.50;;;40.15;;
1759;SDS011;877;46.266;20.062;2023-12-07T10:36:26;64.25;;;40.28;;
1759;SDS011;877;46.266;20.062;2023-12-07T10:38:53;50.08;;;34.42;;
1759;SDS011;877;46.266;20.062;2023-12-07T10:41:19;49.15;;;30.85;;
1759;SDS011;877;46.266;20.062;2023-12-07T10:43:51;45.85;;;32.97;;
1759;SDS011;877;46.266;20.062;2023-12-07T10:46:19;39.70;;;26.40;;
1759;SDS011;877;46.266;20.062;2023-12-07T10:48:46;39.95;;;27.38;;
1759;SDS011;877;46.266;20.062;2023-12-07T10:51:17;47.03;;;33.47;;
1759;SDS011;877;46.266;20.062;2023-12-07T10:53:46;40.83;;;28.30;;
1759;SDS011;877;46.266;20.062;2023-12-07T10:56:22;46.75;;;29.10;;
1759;SDS011;877;46.266;20.062;2023-12-07T10:58:51;38.97;;;25.48;;
1759;SDS011;877;46.266;20.062;2023-12-07T11:01:18;46.15;;;27.13;;
1759;SDS011;877;46.266;20.062;2023-12-07T11:03:45;49.90;;;35.67;;
1759;SDS011;877;46.266;20.062;2023-12-07T11:06:11;40.42;;;33.90;;
1759;SDS011;877;46.266;20.062;2023-12-07T11:08:41;34.03;;;24.70;;
1759;SDS011;877;46.266;20.062;2023-12-07T11:13:38;34.15;;;23.05;;
1759;SDS011;877;46.266;20.062;2023-12-07T11:16:06;35.80;;;29.42;;
1759;SDS011;877;46.266;20.062;2023-12-07T11:18:34;33.33;;;23.83;;
1759;SDS011;877;46.266;20.062;2023-12-07T11:21:02;33.25;;;22.83;;
1759;SDS011;877;46.266;20.062;2023-12-07T11:23:28;31.38;;;20.92;;
1759;SDS011;877;46.266;20.062;2023-12-07T11:25:55;37.05;;;23.83;;
1759;SDS011;877;46.266;20.062;2023-12-07T11:28:37;34.00;;;23.45;;
1759;SDS011;877;46.266;20.062;2023-12-07T11:31:05;41.53;;;27.48;;
1759;SDS011;877;46.266;20.062;2023-12-07T11:33:33;36.88;;;28.73;;
1759;SDS011;877;46.266;20.062;2023-12-07T11:38:28;35.63;;;27.30;;
1759;SDS011;877;46.266;20.062;2023-12-07T11:40:55;33.13;;;23.58;;
1759;SDS011;877;46.266;20.062;2023-12-07T11:45:57;36.58;;;24.30;;
1759;SDS011;877;46.266;20.062;2023-12-07T11:48:23;32.13;;;20.45;;
1759;SDS011;877;46.266;20.062;2023-12-07T11:50:53;35.80;;;23.13;;
1759;SDS011;877;46.266;20.062;2023-12-07T11:53:24;39.00;;;26.13;;
1759;SDS011;877;46.266;20.062;2023-12-07T11:55:50;35.00;;;29.55;;
1759;SDS011;877;46.266;20.062;2023-12-07T11:58:17;37.55;;;28.05;;
1759;SDS011;877;46.266;20.062;2023-12-07T12:00:43;36.10;;;26.70;;
1759;SDS011;877;46.266;20.062;2023-12-07T12:03:11;51.38;;;34.33;;
1759;SDS011;877;46.266;20.062;2023-12-07T12:05:38;42.03;;;29.35;;
1759;SDS011;877;46.266;20.062;2023-12-07T12:08:05;39.20;;;25.80;;
1759;SDS011;877;46.266;20.062;2023-12-07T12:10:32;42.42;;;28.70;;
1759;SDS011;877;46.266;20.062;2023-12-07T12:13:02;41.75;;;27.13;;
1759;SDS011;877;46.266;20.062;2023-12-07T12:15:28;40.25;;;32.65;;
1759;SDS011;877;46.266;20.062;2023-12-07T12:17:58;55.65;;;32.97;;
1759;SDS011;877;46.266;20.062;2023-12-07T12:20:25;83.78;;;35.78;;
1759;SDS011;877;46.266;20.062;2023-12-07T12:22:51;46.83;;;28.35;;
1759;SDS011;877;46.266;20.062;2023-12-07T12:25:23;40.72;;;27.90;;
1759;SDS011;877;46.266;20.062;2023-12-07T12:28:01;65.45;;;32.50;;
1759;SDS011;877;46.266;20.062;2023-12-07T12:30:28;120.57;;;45.35;;
1759;SDS011;877;46.266;20.062;2023-12-07T12:32:55;62.83;;;36.13;;
1759;SDS011;877;46.266;20.062;2023-12-07T12:35:22;62.13;;;36.53;;
1759;SDS011;877;46.266;20.062;2023-12-07T12:37:48;70.60;;;37.38;;
1759;SDS011;877;46.266;20.062;2023-12-07T12:40:15;44.15;;;31.75;;
1759;SDS011;877;46.266;20.062;2023-12-07T12:42:46;44.10;;;32.45;;
1759;SDS011;877;46.266;20.062;2023-12-07T12:45:16;40.38;;;27.77;;
1759;SDS011;877;46.266;20.062;2023-12-07T12:47:47;53.03;;;30.85;;
1759;SDS011;877;46.266;20.062;2023-12-07T12:52:59;40.53;;;29.55;;
1759;SDS011;877;46.266;20.062;2023-12-07T12:55:28;43.28;;;28.75;;
1759;SDS011;877;46.266;20.062;2023-12-07T12:57:55;42.05;;;29.90;;
1759;SDS011;877;46.266;20.062;2023-12-07T13:00:24;44.90;;;33.17;;
1759;SDS011;877;46.266;20.062;2023-12-07T13:02:51;42.08;;;29.67;;
1759;SDS011;877;46.266;20.062;2023-12-07T13:05:17;40.58;;;31.67;;
1759;SDS011;877;46.266;20.062;2023-12-07T13:07:44;38.70;;;25.38;;
1759;SDS011;877;46.266;20.062;2023-12-07T13:10:14;34.25;;;26.05;;
1759;SDS011;877;46.266;20.062;2023-12-07T13:12:40;39.75;;;27.95;;
1759;SDS011;877;46.266;20.062;2023-12-07T13:15:08;44.05;;;31.08;;
1759;SDS011;877;46.266;20.062;2023-12-07T13:17:35;46.70;;;31.50;;
1759;SDS011;877;46.266;20.062;2023-12-07T13:20:02;53.03;;;34.40;;
1759;SDS011;877;46.266;20.062;2023-12-07T13:22:28;44.95;;;35.08;;
1759;SDS011;877;46.266;20.062;2023-12-07T13:24:55;70.72;;;44.95;;
1759;SDS011;877;46.266;20.062;2023-12-07T13:27:21;65.45;;;50.13;;
1759;SDS011;877;46.266;20.062;2023-12-07T13:29:47;45.05;;;33.03;;
1759;SDS011;877;46.266;20.062;2023-12-07T13:32:15;46.67;;;31.10;;
1759;SDS011;877;46.266;20.062;2023-12-07T13:34:42;54.47;;;39.92;;
1759;SDS011;877;46.266;20.062;2023-12-07T13:37:08;48.75;;;34.75;;
1759;SDS011;877;46.266;20.062;2023-12-07T13:39:35;45.58;;;32.88;;
1759;SDS011;877;46.266;20.062;2023-12-07T13:42:01;44.50;;;31.67;;
1759;SDS011;877;46.266;20.062;2023-12-07T13:44:28;47.67;;;34.85;;
1759;SDS011;877;46.266;20.062;2023-12-07T13:46:54;49.85;;;32.42;;
1759;SDS011;877;46.266;20.062;2023-12-07T13:49:22;73.70;;;41.17;;
1759;SDS011;877;46.266;20.062;2023-12-07T13:51:51;68.15;;;38.63;;
1759;SDS011;877;46.266;20.062;2023-12-07T13:54:17;52.90;;;37.63;;
1759;SDS011;877;46.266;20.062;2023-12-07T13:56:43;43.65;;;29.92;;
1759;SDS011;877;46.266;20.062;2023-12-07T13:59:09;43.78;;;29.90;;
1759;SDS011;877;46.266;20.062;2023-12-07T14:01:37;45.40;;;31.50;;
1759;SDS011;877;46.266;20.062;2023-12-07T14:04:06;41.40;;;31.95;;
1759;SDS011;877;46.266;20.062;2023-12-07T14:06:33;35.80;;;26.38;;
1759;SDS011;877;46.266;20.062;2023-12-07T14:09:02;36.22;;;25.05;;
1759;SDS011;877;46.266;20.062;2023-12-07T14:11:29;42.20;;;29.90;;
1759;SDS011;877;46.266;20.062;2023-12-07T14:13:55;37.47;;;27.60;;
1759;SDS011;877;46.266;20.062;2023-12-07T14:16:24;44.08;;;31.05;;
1759;SDS011;877;46.266;20.062;2023-12-07T14:18:50;32.25;;;23.25;;
1759;SDS011;877;46.266;20.062;2023-12-07T14:21:20;61.80;;;40.75;;
1759;SDS011;877;46.266;20.062;2023-12-07T14:23:47;54.28;;;36.25;;
1759;SDS011;877;46.266;20.062;2023-12-07T14:26:14;67.45;;;42.30;;
1759;SDS011;877;46.266;20.062;2023-12-07T14:28:40;59.25;;;40.63;;
1759;SDS011;877;46.266;20.062;2023-12-07T14:31:07;57.67;;;40.13;;
1759;SDS011;877;46.266;20.062;2023-12-07T14:33:40;66.40;;;38.72;;
1759;SDS011;877;46.266;20.062;2023-12-07T14:36:08;49.60;;;35.42;;
1759;SDS011;877;46.266;20.062;2023-12-07T14:38:34;49.10;;;31.95;;
1759;SDS011;877;46.266;20.062;2023-12-07T14:41:00;50.85;;;33.53;;
1759;SDS011;877;46.266;20.062;2023-12-07T14:43:27;36.70;;;27.42;;
1759;SDS011;877;46.266;20.062;2023-12-07T14:45:53;40.85;;;30.30;;
1759;SDS011;877;46.266;20.062;2023-12-07T14:48:20;39.55;;;28.45;;
1759;SDS011;877;46.266;20.062;2023-12-07T14:50:46;36.30;;;28.35;;
1759;SDS011;877;46.266;20.062;2023-12-07T14:53:12;42.42;;;32.30;;
1759;SDS011;877;46.266;20.062;2023-12-07T14:55:40;41.22;;;30.10;;
1759;SDS011;877;46.266;20.062;2023-12-07T14:58:06;39.30;;;28.23;;
1759;SDS011;877;46.266;20.062;2023-12-07T15:00:32;42.90;;;30.33;;
1759;SDS011;877;46.266;20.062;2023-12-07T15:02:58;57.00;;;34.72;;